Time;durP1;ratioP1;P1;durP2;ratioP2;P2;SDS_P1;SDS_P2;PMS_P1;PMS_P2;Temp;Humidity;BMP_temperature;BMP_pressure;BME280_temperature;BME280_humidity;BME280_pressure;Samples;Min_cycle;Max_cycle;Signal;HPM_P1;HPM_P2
2023/02/04 05:43:50;;;;;;;15.10;9.30;;;;;;;-7.69;97.70;99861.79;107700;1276;23441;-44
2023/02/04 05:46:17;;;;;;;19.60;10.70;;;;;;;-7.60;97.63;99865.92;110471;1251;22779;-37
2023/02/04 05:48:44;;;;;;;22.50;12.20;;;;;;;-7.60;97.20;99870.22;110008;1252;22529;-44
2023/02/04 05:51:11;;;;;;;20.30;10.00;;;;;;;-7.65;96.76;99876.45;109788;1252;22504;-44
2023/02/04 05:53:39;;;;;;;15.20;8.90;;;;;;;-7.73;96.18;99878.83;110338;1252;23278;-38
2023/02/04 05:56:06;;;;;;;18.90;10.10;;;;;;;-7.83;95.98;99878.69;111790;1252;22401;-37
2023/02/04 05:58:33;;;;;;;18.00;9.60;;;;;;;-7.93;95.89;99883.10;112672;1252;22426;-45
2023/02/04 08:13:29;;;;;;;33.10;15.70;;;;;;;-3.05;88.64;99917.96;104879;1304;558803;-41
2023/02/04 08:16:20;;;;;;;21.60;13.60;;;;;;;-2.72;88.06;99925.84;105978;1288;510905;-40
2023/02/04 08:19:09;;;;;;;22.00;13.30;;;;;;;-2.49;87.67;99927.92;106381;1288;25360;-48
2023/02/04 08:21:47;;;;;;;24.70;14.30;;;;;;;-2.33;87.48;99928.66;107326;1288;22588;-48
2023/02/04 08:24:42;;;;;;;20.60;12.80;;;;;;;-2.16;86.99;99931.81;106535;1288;24230;-47
2023/02/04 08:27:41;;;;;;;19.70;12.20;;;;;;;-2.03;86.27;99936.69;106536;1275;23599;-47
2023/02/04 08:31:11;;;;;;;20.70;11.80;;;;;;;-1.99;86.11;99941.46;107596;1288;22572;-41
2023/02/04 08:33:56;;;;;;;19.20;11.70;;;;;;;-1.95;85.67;99943.52;106608;1279;24294;-46
2023/02/04 08:36:43;;;;;;;19.60;11.00;;;;;;;-1.85;85.98;99942.11;106509;1279;22797;-39
2023/02/04 08:39:28;;;;;;;20.40;14.00;;;;;;;-1.68;85.91;99944.89;106897;1297;25454;-47
2023/02/04 08:42:00;;;;;;;19.90;13.20;;;;;;;-1.59;85.33;99944.61;105938;1291;22558;-40
2023/02/04 08:44:42;;;;;;;17.40;11.20;;;;;;;-1.51;85.08;99947.17;105664;1297;22583;-39
2023/02/04 08:47:23;;;;;;;19.00;12.40;;;;;;;-1.46;84.65;99945.64;105692;1297;25648;-49
2023/02/04 08:49:55;;;;;;;15.40;10.30;;;;;;;-1.39;84.82;99946.96;106876;1286;22593;-40
2023/02/04 08:52:35;;;;;;;14.60;10.20;;;;;;;-1.28;84.31;99944.86;106468;1286;25612;-48
2023/02/04 08:55:06;;;;;;;16.40;10.10;;;;;;;-1.22;83.94;99945.13;106799;1286;22548;-40
2023/02/04 08:57:50;;;;;;;16.20;9.50;;;;;;;-1.15;84.03;99937.90;107220;1280;24323;-41
2023/02/04 09:01:10;;;;;;;12.90;9.20;;;;;;;-1.12;83.05;99930.31;107213;1285;22570;-40
2023/02/04 09:04:35;;;;;;;11.50;8.30;;;;;;;-0.94;84.36;99923.84;106869;1285;22986;-41
2023/02/04 09:08:03;;;;;;;13.90;8.30;;;;;;;-0.67;84.37;99925.23;107414;1285;22574;-41
2023/02/04 09:11:17;;;;;;;13.20;8.80;;;;;;;-0.57;83.51;99922.57;108452;1254;23194;-40
2023/02/04 09:13:52;;;;;;;16.10;10.70;;;;;;;-0.46;83.92;99916.63;106863;1283;22564;-47
2023/02/04 09:16:32;;;;;;;20.50;11.90;;;;;;;-0.28;84.03;99917.32;106878;1284;24364;-39
2023/02/04 09:19:04;;;;;;;16.80;11.70;;;;;;;-0.05;83.69;99915.25;108020;1279;22630;-47
2023/02/04 09:21:36;;;;;;;;;;;;;;;0.17;83.36;99918.27;107232;1278;25292;-41
2023/02/04 09:24:08;;;;;;;18.30;11.50;;;;;;;0.38;82.92;99920.20;107537;1270;22532;-40
2023/02/04 09:26:41;;;;;;;21.00;12.20;;;;;;;0.51;82.51;99918.43;106655;1277;25372;-40
2023/02/04 09:29:19;;;;;;;29.60;12.00;;;;;;;0.64;82.00;99919.55;106737;1284;22530;-49
2023/02/04 09:31:51;;;;;;;14.80;11.10;;;;;;;0.75;82.01;99916.98;106589;1285;26763;-49
2023/02/04 09:34:22;;;;;;;16.20;10.70;;;;;;;0.86;81.50;99912.04;106957;1285;25502;-41
2023/02/04 09:36:53;;;;;;;15.30;10.10;;;;;;;0.94;80.81;99913.50;106714;1285;22601;-48
2023/02/04 09:39:31;;;;;;;12.70;9.50;;;;;;;0.95;81.00;99918.50;106252;1276;25260;-48
2023/02/04 09:42:09;;;;;;;17.40;10.10;;;;;;;0.93;80.51;99922.05;107012;1280;25408;-48
2023/02/04 09:44:46;;;;;;;15.40;9.60;;;;;;;0.84;80.41;99922.44;107212;1276;22528;-40
2023/02/04 09:47:16;;;;;;;16.60;11.90;;;;;;;0.75;81.28;99921.62;107274;1284;22528;-41
2023/02/04 09:49:51;;;;;;;14.20;10.90;;;;;;;0.78;82.19;99919.33;106827;1284;26752;-49
2023/02/04 09:52:23;;;;;;;16.50;11.20;;;;;;;0.87;82.70;99923.04;106934;1284;22536;-41
2023/02/04 09:55:00;;;;;;;17.90;11.60;;;;;;;0.92;82.54;99917.90;106626;1284;22660;-48
2023/02/04 09:57:32;;;;;;;16.40;11.90;;;;;;;1.00;82.84;99918.85;107341;1284;22559;-47
2023/02/04 10:00:14;;;;;;;16.90;11.30;;;;;;;1.13;82.77;99917.69;106769;1284;24440;-48
2023/02/04 10:02:54;;;;;;;20.00;12.20;;;;;;;1.14;82.51;99919.11;106739;1284;22589;-48
2023/02/04 10:05:31;;;;;;;15.90;10.40;;;;;;;1.24;82.65;99920.27;106445;1284;22553;-40
2023/02/04 10:08:18;;;;;;;18.20;12.10;;;;;;;1.29;82.01;99920.63;106507;1284;26087;-39
2023/02/04 10:10:50;;;;;;;16.10;11.30;;;;;;;1.32;81.91;99918.15;106986;1283;22533;-48
2023/02/04 10:13:32;;;;;;;15.10;10.90;;;;;;;1.45;82.54;99914.05;106767;1284;22604;-48
2023/02/04 10:16:12;;;;;;;19.90;12.00;;;;;;;1.65;82.30;99916.37;107166;1285;22546;-40
2023/02/04 10:18:44;;;;;;;17.40;11.00;;;;;;;1.84;81.80;99914.02;106216;1285;22594;-40
2023/02/04 10:21:16;;;;;;;;;;;;;;;1.95;81.27;99910.52;106613;1283;22576;-39
2023/02/04 10:23:49;;;;;;;16.50;11.40;;;;;;;1.97;80.92;99913.86;107012;1284;22587;-47
2023/02/04 10:26:28;;;;;;;15.40;10.50;;;;;;;2.10;81.46;99913.04;106999;1283;27142;-39
2023/02/04 10:29:18;;;;;;;16.60;10.40;;;;;;;2.41;81.38;99906.47;107081;1284;22470;-47
2023/02/04 10:32:35;;;;;;;11.90;8.00;;;;;;;2.95;80.55;99900.09;107131;1280;22539;-47
2023/02/04 10:35:15;;;;;;;12.50;9.10;;;;;;;3.42;77.08;99899.48;107359;1284;25638;-47
2023/02/04 10:37:49;;;;;;;11.10;8.90;;;;;;;3.60;76.46;99899.52;106855;1283;22589;-48
2023/02/04 10:40:34;;;;;;;11.40;8.80;;;;;;;4.12;76.48;99901.98;106622;1283;25424;-40
2023/02/04 10:43:11;;;;;;;18.70;11.50;;;;;;;4.84;74.73;99897.08;107110;1284;22682;-48
2023/02/04 10:45:47;;;;;;;16.10;9.70;;;;;;;5.51;72.21;99900.70;106463;1284;22544;-47
2023/02/04 10:48:26;;;;;;;10.50;7.20;;;;;;;6.06;70.34;99900.40;106880;1284;22547;-48
2023/02/04 10:50:59;;;;;;;8.60;7.20;;;;;;;6.64;68.38;99897.22;106765;1284;22536;-49
2023/02/04 10:56:36;;;;;;;9.10;6.50;;;;;;;7.41;62.20;99893.16;106883;1284;25398;-41
2023/02/04 10:59:07;;;;;;;11.30;7.20;;;;;;;7.49;61.05;99892.69;106472;1284;24576;-41
2023/02/04 11:01:39;;;;;;;12.40;7.60;;;;;;;7.61;59.14;99891.55;107012;1283;25348;-48
2023/02/04 11:04:15;;;;;;;7.20;6.00;;;;;;;7.54;58.94;99894.27;106611;1283;22688;-41
2023/02/04 11:06:52;;;;;;;10.00;7.50;;;;;;;7.53;58.74;99894.97;107175;1284;25281;-48
2023/02/04 11:09:24;;;;;;;10.30;6.80;;;;;;;7.61;58.88;99898.48;106348;1284;22533;-41
2023/02/04 11:11:57;;;;;;;6.50;5.70;;;;;;;7.86;58.35;99898.79;106502;1284;26605;-42
2023/02/04 11:14:30;;;;;;;6.00;5.40;;;;;;;8.16;58.24;99898.73;106705;1284;24346;-40
2023/02/04 11:17:02;;;;;;;6.00;5.00;;;;;;;8.51;57.13;99898.51;106875;1284;22598;-41
2023/02/04 11:19:44;;;;;;;8.40;6.50;;;;;;;8.85;56.38;99894.73;106985;1284;22429;-49
